Warning: Javascript must be enabled to use all the features on this page!


Page Loading - Please Wait...

Click to hideNews Bulletins

Peak Streamflow for the Nation

USGS 01426500 WEST BRANCH DELAWARE RIVER AT HALE EDDY NY

Delaware County, New York
Hydrologic Unit Code 02040101
Latitude  42°00'10.9", Longitude  75°23'00.7" NAD83
Drainage area 595  square miles
Gage datum 945.98 feet above NAVD88
Output formats
Table
Graph
Tab-separated file
peakfq (watstore) format
Reselect output format
Water
Year
Date Gage
Height
(feet)
Stream-
flow
(cfs)
1904 1903-10-10 20.30 46,0002,7
1913 1913-03-27 15.30 25,000
1914 1914-03-28 14.60 21,300
1915 1915-07-08 13.90 20,000
1916 1916-04-02 12.60 17,400
1917 1917-03-28 10.70 11,800
1918 1917-10-30   18,300
1919 1919-04-12 7.50 5,420
1920 1920-03-13 13.00 18,100
1921 1921-03-10 10.50 11,200
1922 1921-11-29 13.30 19,000
1923 1923-03-17 10.00 11,400
1924 1924-09-30 15.80 26,500
1925 1925-02-12 14.30 22,000
1926 1926-04-09 10.90 12,200
1927 1926-11-17 12.50 16,600
1928 1927-10-19 11.60 14,000
1929 1929-03-15 12.90 17,800
1930 1929-12-20 8.30 6,520
1931 1931-07-22 9.27 8,340
1932 1932-04-01 10.44 11,100
1933 1933-08-24 12.31 16,000
1934 1934-03-05 11.431 13,000
1935 1935-07-08 12.62 19,000
1936 1936-03-18 14.22 25,900
1937 1937-01-25 9.74 10,100
1938 1938-09-22 15.59 25,600
1939 1939-02-20 12.002 14,300
1940 1940-03-31 14.97 23,400
1941 1940-12-30 9.33 8,210
1942 1942-05-23 14.52 21,900
1943 1942-12-30 14.95 23,300
1944 1944-03-17 11.94 14,200
1945 1945-03-03 10.451,2 11,000
1946 1946-05-28 10.472 11,000
1947 1947-04-06 11.11 12,800
1948 1948-03-22 15.69 28,900
1949 1948-12-31 12.32 16,000
1950 1950-03-28 12.142 15,500
1951 1950-12-04 13.39 19,500
1952 1952-03-11 10.17 10,500
1953 1952-12-11 12.51 16,600
1954 1954-02-17 10.01 10,200
1955 1955-08-19 12.67 16,0009
1956 1956-04-05 12.42 15,300
1957 1957-01-23 9.84 9,230
1958 1958-04-07 11.92 14,100
1959 1959-01-22 13.96 20,100
1960 1960-04-04 13.42 18,200
1961 1961-02-26 13.14 17,300
1962 1962-04-01 11.98 14,200
1963 1963-03-27 11.19 12,300
1964 1964-03-10 9.73 9,0006
1965 1965-02-08 6.191 2,7002,6
1966 1966-06-10 5.822 2,9706
1967 1967-03-29 6.29 3,4506
1968 1968-03-23 8.47 6,6106
1969 1969-04-05 6.61 3,9006
1970 1970-07-04 10.48 10,7006
1971 1971-02-14 9.29 7,5006
1972 1972-04-21 8.23 6,2006
1973 1973-06-30 11.57 13,2006
1974 1974-04-15 7.02 4,4206
1975 1975-02-25 10.08 9,7406
1976 1975-10-19 11.04 11,9006
1977 1977-03-14 11.96 14,2006
1978 1978-01-27 9.54 8,6206
1979 1979-03-06 12.21 14,8006
1980 1980-03-21 7.77 5,6206
1981 1981-02-11 8.58 6,9606
1982 1982-04-04 6.562 3,9006
1983 1983-04-25 9.86 9,3806
1984 1984-05-30 9.522 8,7006
1985 1985-09-27 8.50 6,8206
1986 1986-03-15 13.63 18,7006
1987 1987-04-05 10.22 10,1006
1988 1988-03-27 7.592 5,3406
1989 1989-05-06 7.13 4,6606
1990 1989-11-16 7.75 5,5906
1991 1990-10-24 7.18 4,7306
1992 1992-03-11 6.37 3,6406
1993 1993-04-01 11.62 13,3006
1994 1994-04-16 8.74 7,2406
1995 1995-03-09 6.16 3,3806
1996 1996-01-19 11.51 13,2006
1997 1996-11-10 10.49 10,7006
1998 1998-03-10 7.92 6,1106
1999 1999-01-24 7.391 4,6106
2000 2000-05-24 8.79 7,5706
2001 2001-04-10 9.63 9,1006
2002 2002-05-31 5.84 3,1706
2003 2003-03-22 11.10 12,0002,6
2004 2004-09-18 12.83 17,5006
2005 2005-04-03 14.12 21,5006
2006 2006-06-28 19.10 43,4006
2007 2007-03-27 9.04 8,3206
2008 2008-03-08 10.51 11,4006
2009 2009-08-10 8.98 8,2006
2010 2010-01-25 9.46 9,1506
2011 2011-09-08 14.71 22,2006,9
2012 2012-05-15 6.18 3,4806
2013 2013-07-02 7.25 4,9506
2014 2014-05-16 9.16 8,2406
2015 2014-10-15 7.15 4,5106
2016 2015-11-11 8.01 6,3706
2017 2017-04-07 8.80 7,8606
2018 2018-08-09 7.65 5,8306
2019 2019-04-20 7.42 5,4506
2020 2019-11-01 7.50 5,5806
?
  Peak Gage-Height Qualification Codes.
?
  Peak Streamflow Qualification Codes.